Time;durP1;ratioP1;P1;durP2;ratioP2;P2;SDS_P1;SDS_P2;PMS_P1;PMS_P2;Temp;Humidity;BMP_temperature;BMP_pressure;BME280_temperature;BME280_humidity;BME280_pressure;Samples;Min_cycle;Max_cycle;Signal;HPM_P1;HPM_P2
2021/04/13 00:01:10;;;;;;;9.50;7.53;;;;;;;-0.81;92.60;101674.56;2079736;28;20025;-62
2021/04/13 00:02:25;;;;;;;9.68;7.93;;;;;;;-0.87;92.58;101675.19;2078453;28;20052;-61
2021/04/13 00:03:26;;;;;;;9.98;7.63;;;;;;;-0.89;92.69;101681.94;2076948;28;20295;-61
2021/04/13 00:04:27;;;;;;;8.93;7.65;;;;;;;-0.90;92.59;101677.63;2075345;28;20098;-61
2021/04/13 00:05:29;;;;;;;8.83;7.43;;;;;;;-0.88;92.64;101673.44;2078383;28;20025;-61
2021/04/13 00:06:39;;;;;;;8.55;6.95;;;;;;;-0.90;92.71;101674.19;2080388;28;20395;-61
2021/04/13 00:07:43;;;;;;;13.43;7.97;;;;;;;-0.89;92.74;101687.06;2079274;28;20116;-61
2021/04/13 00:08:48;;;;;;;9.50;7.97;;;;;;;-0.86;92.97;101679.50;2078409;28;20067;-60
2021/04/13 00:09:49;;;;;;;10.25;8.38;;;;;;;-0.86;92.86;101676.94;2078285;28;20537;-60
2021/04/13 00:10:54;;;;;;;12.60;9.27;;;;;;;-0.82;92.62;101683.03;2077736;28;20025;-60
2021/04/13 00:12:05;;;;;;;12.18;7.90;;;;;;;-0.80;93.08;101679.75;2077511;28;20037;-60
2021/04/13 00:13:06;;;;;;;9.80;7.90;;;;;;;-0.80;92.90;101682.31;2077474;28;20832;-60
2021/04/13 00:14:09;;;;;;;9.10;8.13;;;;;;;-0.75;92.60;101679.94;2073875;28;20029;-60
2021/04/13 00:15:26;;;;;;;9.45;8.00;;;;;;;-0.77;92.49;101681.56;2078938;28;20059;-60
2021/04/13 00:16:29;;;;;;;9.23;7.53;;;;;;;-0.75;92.40;101682.50;2078628;28;20032;-60
2021/04/13 00:17:32;;;;;;;11.88;8.50;;;;;;;-0.76;92.44;101675.63;2077739;28;20041;-60
2021/04/13 00:18:34;;;;;;;12.57;8.38;;;;;;;-0.74;92.26;101684.25;2078824;28;20030;-61
2021/04/13 00:19:49;;;;;;;11.05;7.75;;;;;;;-0.78;92.05;101672.13;2071861;28;20111;-61
2021/04/13 00:20:55;;;;;;;8.93;7.35;;;;;;;-0.79;92.02;101671.28;2077518;28;20026;-61
2021/04/13 00:21:55;;;;;;;10.40;7.93;;;;;;;-0.82;91.67;101670.25;2078486;28;20597;-61
2021/04/13 00:22:56;;;;;;;10.00;7.63;;;;;;;-0.84;91.67;101669.34;2078663;28;20022;-61
2021/04/13 00:23:59;;;;;;;8.98;7.60;;;;;;;-0.83;91.67;101671.94;2077763;28;20037;-60
2021/04/13 00:25:01;;;;;;;10.38;7.60;;;;;;;-0.83;91.94;101671.06;2075439;28;20042;-60
2021/04/13 00:26:04;;;;;;;8.98;7.38;;;;;;;-0.87;92.03;101672.63;2077780;28;20029;-60
2021/04/13 00:27:05;;;;;;;9.45;7.38;;;;;;;-0.88;92.13;101673.44;2078369;28;20116;-61
2021/04/13 00:28:07;;;;;;;8.88;7.43;;;;;;;-0.87;92.21;101672.63;2077606;28;20561;-60
2021/04/13 00:29:11;;;;;;;9.70;7.90;;;;;;;-0.76;92.20;101674.75;2078289;28;20083;-60
2021/04/13 00:30:18;;;;;;;9.82;7.78;;;;;;;-0.78;92.01;101669.56;2078411;28;20552;-60
2021/04/13 00:31:45;;;;;;;10.55;7.85;;;;;;;-0.76;91.98;101667.94;2078165;28;20393;-60
2021/04/13 00:32:56;;;;;;;10.30;7.47;;;;;;;-0.95;92.07;101671.44;2077367;28;20033;-57
2021/04/13 00:33:56;;;;;;;11.35;7.70;;;;;;;-1.00;92.34;101675.50;2075532;28;20040;-60
2021/04/13 00:35:27;;;;;;;10.48;7.68;;;;;;;-1.08;92.46;101672.63;2079499;28;20448;-60
2021/04/13 00:36:28;;;;;;;9.05;7.00;;;;;;;-1.13;92.59;101681.81;2082477;28;20040;-60
2021/04/13 00:37:30;;;;;;;11.00;7.90;;;;;;;-1.14;92.90;101680.94;2085630;28;20024;-60
2021/04/13 00:38:49;;;;;;;10.20;7.40;;;;;;;-1.18;93.03;101680.72;2078880;28;20049;-60
2021/04/13 00:39:53;;;;;;;9.45;7.93;;;;;;;-1.15;93.37;101681.72;2078209;28;20493;-60
2021/04/13 00:40:54;;;;;;;10.48;8.55;;;;;;;-1.17;93.38;101685.03;2078586;28;20148;-61
2021/04/13 00:41:59;;;;;;;10.48;8.30;;;;;;;-1.18;93.29;101684.19;2078747;28;20501;-60
2021/04/13 00:43:02;;;;;;;11.05;8.77;;;;;;;-1.15;93.52;101688.53;2078442;28;20037;-60
2021/04/13 00:44:09;;;;;;;11.27;8.75;;;;;;;-1.10;93.35;101697.28;2078614;28;20033;-60
2021/04/13 00:45:24;;;;;;;10.88;7.97;;;;;;;-1.05;93.06;101688.13;2078717;28;20124;-60
2021/04/13 00:46:36;;;;;;;12.73;8.68;;;;;;;-1.04;92.79;101691.53;2078545;28;20048;-60
2021/04/13 00:47:37;;;;;;;;;;;;;;;-0.97;92.95;101691.88;2073447;28;20041;-59
2021/04/13 00:48:41;;;;;;;9.80;7.78;;;;;;;-0.93;92.71;101686.88;2078512;28;19960;-59
2021/04/13 00:49:50;;;;;;;12.13;7.95;;;;;;;-0.89;92.61;101692.19;2077805;28;20132;-60
2021/04/13 00:50:55;;;;;;;10.30;8.23;;;;;;;-0.85;92.44;101690.63;2073567;28;20063;-59
2021/04/13 00:52:01;;;;;;;12.60;8.60;;;;;;;-0.81;92.35;101689.91;2078641;28;20080;-59
2021/04/13 00:53:05;;;;;;;9.43;7.63;;;;;;;-0.76;92.13;101691.00;2075580;28;20684;-59
2021/04/13 00:54:11;;;;;;;10.73;8.65;;;;;;;-0.73;92.05;101688.53;2079104;28;20619;-60
2021/04/13 00:55:13;;;;;;;11.52;8.57;;;;;;;-0.66;91.81;101690.56;2077226;28;20502;-59
2021/04/13 00:56:15;;;;;;;10.65;8.50;;;;;;;-0.58;91.52;101687.41;2075988;28;20112;-60
2021/04/13 00:57:21;;;;;;;11.82;8.85;;;;;;;-0.53;91.41;101688.44;2075017;28;20034;-60
2021/04/13 00:58:28;;;;;;;9.82;8.18;;;;;;;-0.49;90.84;101687.78;2078033;28;20021;-57
2021/04/13 00:59:30;;;;;;;10.77;8.15;;;;;;;-0.42;90.64;101688.88;2075229;28;20021;-56
2021/04/13 01:00:36;;;;;;;11.20;8.63;;;;;;;-0.36;90.21;101684.00;2076905;28;20032;-57
2021/04/13 01:01:41;;;;;;;10.10;8.35;;;;;;;-0.36;90.05;101682.31;2077836;28;20030;-56
2021/04/13 01:02:41;;;;;;;10.68;8.55;;;;;;;-0.28;90.05;101685.16;2078373;28;20021;-57
2021/04/13 01:04:00;;;;;;;10.27;7.93;;;;;;;-0.24;89.78;101683.56;2078035;28;20155;-57
2021/04/13 01:05:15;;;;;;;9.30;7.47;;;;;;;-0.20;89.76;101685.44;2078566;28;20158;-57
2021/04/13 01:06:24;;;;;;;10.32;8.05;;;;;;;-0.17;89.66;101683.00;2076075;28;20037;-57
2021/04/13 01:07:33;;;;;;;11.73;8.30;;;;;;;-0.14;89.81;101680.53;2077915;28;20049;-57
2021/04/13 01:08:39;;;;;;;11.10;8.65;;;;;;;-0.11;89.72;101685.78;2077517;28;20025;-57
2021/04/13 01:09:50;;;;;;;12.65;7.95;;;;;;;-0.06;89.34;101681.72;2091632;23;20009;-61
2021/04/13 01:10:54;;;;;;;9.85;7.40;;;;;;;-0.03;89.16;101688.66;2077338;28;20049;-60
2021/04/13 01:12:08;;;;;;;9.20;7.65;;;;;;;-0.03;89.06;101673.28;2075422;28;20496;-61
2021/04/13 01:13:17;;;;;;;10.80;8.18;;;;;;;-0.04;88.94;101680.06;2066798;28;20397;-61
2021/04/13 01:14:19;;;;;;;9.23;7.30;;;;;;;-0.01;89.01;101680.19;2070365;28;20025;-61
2021/04/13 01:15:21;;;;;;;9.00;7.82;;;;;;;-0.01;89.18;101682.75;2072371;28;20044;-61
2021/04/13 01:16:26;;;;;;;9.93;7.65;;;;;;;-0.02;88.99;101678.44;2070728;28;20143;-61
2021/04/13 01:17:27;;;;;;;11.70;7.97;;;;;;;-0.01;89.09;101680.19;2070785;28;20053;-61
2021/04/13 01:18:33;;;;;;;;;;;;;;;-0.03;89.46;101676.69;2071002;28;20486;-61
2021/04/13 01:19:53;;;;;;;12.15;8.40;;;;;;;-0.05;89.47;101683.44;2066184;28;20716;-61
2021/04/13 01:21:03;;;;;;;10.32;7.85;;;;;;;-0.08;89.44;101685.03;2070092;28;20034;-61
2021/04/13 01:22:17;;;;;;;11.30;7.95;;;;;;;-0.10;89.23;101676.44;2065101;28;20022;-61
2021/04/13 01:23:36;;;;;;;9.23;7.60;;;;;;;-0.06;89.32;101679.16;2070362;28;20053;-61
2021/04/13 01:24:46;;;;;;;9.82;7.38;;;;;;;-0.07;89.31;101681.66;2065892;28;20112;-61
2021/04/13 01:25:54;;;;;;;9.48;7.50;;;;;;;-0.12;89.73;101683.19;2063819;28;20626;-61
2021/04/13 01:26:57;;;;;;;9.88;7.93;;;;;;;-0.13;89.75;101686.56;2068860;28;20405;-61
2021/04/13 01:28:00;;;;;;;9.45;7.45;;;;;;;-0.15;90.03;101681.38;2069631;28;20060;-61
2021/04/13 01:29:03;;;;;;;10.23;7.40;;;;;;;-0.12;90.11;101684.03;2069717;28;20048;-61
2021/04/13 01:30:10;;;;;;;10.00;7.72;;;;;;;-0.13;90.10;101677.16;2070245;28;20084;-60
2021/04/13 01:31:41;;;;;;;9.25;7.40;;;;;;;-0.23;90.48;101680.19;2066932;28;20022;-60
2021/04/13 01:32:38;;;;;;;8.95;7.22;;;;;;;-0.23;90.59;101682.75;2070296;28;20575;-60
2021/04/13 01:34:00;;;;;;;8.90;7.23;;;;;;;-0.25;90.27;101682.72;2070544;28;20111;-60
2021/04/13 01:35:09;;;;;;;11.35;7.05;;;;;;;-0.28;90.40;101682.59;2069428;28;20554;-60
2021/04/13 01:36:43;;;;;;;8.30;6.80;;;;;;;-0.35;90.60;101686.63;2069787;28;20536;-60
2021/04/13 01:39:06;;;;;;;8.25;7.13;;;;;;;-0.44;90.96;101680.25;2070624;28;20034;-60
2021/04/13 01:42:16;;;;;;;8.50;7.13;;;;;;;-0.65;91.68;101692.31;2070791;28;20922;-61
2021/04/13 01:43:17;;;;;;;9.13;7.70;;;;;;;-0.78;92.09;101695.16;2070120;28;20040;-60
2021/04/13 01:44:18;;;;;;;;;;;;;;;-0.87;92.28;101693.09;2071177;28;20057;-61
2021/04/13 01:45:23;;;;;;;10.45;7.13;;;;;;;-0.92;92.56;101693.72;2070362;28;20293;-61
2021/04/13 01:46:25;;;;;;;8.60;7.10;;;;;;;-0.99;92.90;101690.91;2070129;28;20758;-61
2021/04/13 01:47:26;;;;;;;9.75;7.50;;;;;;;-1.04;92.82;101691.53;2069659;28;20029;-61
2021/04/13 01:48:27;;;;;;;13.45;7.50;;;;;;;-1.04;93.41;101697.56;2070575;28;20471;-60
2021/04/13 01:49:31;;;;;;;9.10;7.43;;;;;;;-1.06;93.29;101694.03;2070156;28;20040;-61
2021/04/13 01:50:41;;;;;;;13.65;8.32;;;;;;;-1.04;93.53;101700.09;2070765;28;20028;-60
2021/04/13 01:51:42;;;;;;;9.80;8.05;;;;;;;-1.02;93.90;101690.78;2069846;28;20037;-60
2021/04/13 01:52:46;;;;;;;10.35;7.60;;;;;;;-1.01;93.67;101696.78;2069974;28;20386;-60
2021/04/13 01:53:49;;;;;;;11.43;8.60;;;;;;;-0.98;93.70;101697.78;2070485;28;20084;-60
2021/04/13 01:54:51;;;;;;;10.00;8.48;;;;;;;-0.94;93.86;101696.22;2070924;28;20040;-60
2021/04/13 01:55:56;;;;;;;;;;;;;;;-0.86;93.92;101691.44;2070681;28;20038;-60
2021/04/13 01:57:10;;;;;;;11.13;8.48;;;;;;;-0.81;93.75;101701.06;2070373;28;19995;-60
2021/04/13 01:58:42;;;;;;;10.75;8.60;;;;;;;-0.74;93.41;101701.28;2070734;28;20080;-60
2021/04/13 01:59:50;;;;;;;13.02;8.43;;;;;;;-0.71;93.19;101702.28;2070605;28;20107;-60
2021/04/13 02:00:57;;;;;;;9.77;8.07;;;;;;;-0.65;93.15;101706.78;2070738;28;20845;-60
2021/04/13 02:02:00;;;;;;;12.55;8.60;;;;;;;-0.61;93.04;101706.09;2070667;28;20046;-60
2021/04/13 02:03:08;;;;;;;11.40;8.10;;;;;;;-0.56;92.94;101707.13;2070406;28;20034;-60
2021/04/13 02:04:29;;;;;;;13.27;8.93;;;;;;;-0.52;92.92;101708.13;2070364;28;20544;-61
2021/04/13 02:05:33;;;;;;;10.73;8.00;;;;;;;-0.51;92.68;101709.88;2070674;28;20031;-61
2021/04/13 02:06:42;;;;;;;10.32;8.45;;;;;;;-0.52;92.84;101714.16;2069969;28;20029;-61
2021/04/13 02:08:04;;;;;;;9.77;8.07;;;;;;;-0.51;92.48;101712.44;2068964;28;20026;-61
2021/04/13 02:09:14;;;;;;;8.93;7.95;;;;;;;-0.51;92.77;101709.88;2066374;28;20522;-61
2021/04/13 02:10:27;;;;;;;10.35;8.02;;;;;;;-0.56;92.97;101716.53;2070445;28;20057;-57
2021/04/13 02:11:35;;;;;;;11.05;8.23;;;;;;;-0.56;92.96;101717.38;2070245;28;20071;-58
2021/04/13 02:12:42;;;;;;;10.68;8.23;;;;;;;-0.55;92.77;101713.16;2070639;28;20025;-58
2021/04/13 02:13:56;;;;;;;10.65;7.47;;;;;;;-0.54;92.53;101712.34;2071897;28;20029;-58
2021/04/13 02:15:21;;;;;;;10.88;7.55;;;;;;;-0.53;92.49;101716.63;2071189;28;20044;-58
2021/04/13 02:16:30;;;;;;;10.32;7.53;;;;;;;-0.55;92.15;101719.13;2071259;28;20026;-58
2021/04/13 02:17:37;;;;;;;9.20;7.30;;;;;;;-0.55;92.00;101714.00;2072314;28;20045;-57
2021/04/13 02:18:46;;;;;;;9.93;7.78;;;;;;;-0.54;91.98;101718.31;2072102;28;20040;-58
2021/04/13 02:19:49;;;;;;;9.05;7.57;;;;;;;-0.50;91.69;101716.75;2072117;28;20053;-57
2021/04/13 02:20:52;;;;;;;9.30;7.65;;;;;;;-0.47;91.36;101717.75;2071605;28;20037;-58
2021/04/13 02:22:03;;;;;;;9.52;7.85;;;;;;;-0.42;91.29;101714.50;2072258;28;20026;-58
2021/04/13 02:23:05;;;;;;;10.68;7.70;;;;;;;-0.44;91.34;101716.97;2071186;28;20112;-58
2021/04/13 02:24:13;;;;;;;9.02;7.00;;;;;;;-0.43;91.62;101721.28;2069992;28;20022;-58
2021/04/13 02:25:17;;;;;;;10.00;8.00;;;;;;;-0.39;91.49;101715.50;2066689;28;20040;-58
2021/04/13 02:26:18;;;;;;;9.63;7.65;;;;;;;-0.37;91.05;101713.88;2071193;28;20061;-58
2021/04/13 02:27:22;;;;;;;;;;;;;;;-0.37;91.04;101720.66;2072031;28;20037;-58
2021/04/13 02:28:23;;;;;;;9.75;7.40;;;;;;;-0.33;90.97;101720.84;2071953;28;19944;-58
2021/04/13 02:29:47;;;;;;;;;;;;;;;-0.29;90.69;101715.84;2071927;28;20025;-58
2021/04/13 02:30:48;;;;;;;9.70;6.97;;;;;;;-0.26;90.55;101721.97;2063684;28;19956;-58
2021/04/13 02:32:00;;;;;;;9.15;7.05;;;;;;;-0.19;90.08;101723.09;2071996;28;20036;-58
2021/04/13 02:33:19;;;;;;;9.05;6.85;;;;;;;-0.20;89.75;101726.44;2071725;28;20076;-58
2021/04/13 02:34:37;;;;;;;9.82;7.05;;;;;;;-0.19;89.80;101723.09;2073518;28;20075;-60
2021/04/13 02:35:39;;;;;;;9.02;6.75;;;;;;;-0.14;89.85;101728.38;2078738;28;20029;-60
2021/04/13 02:36:41;;;;;;;9.05;7.18;;;;;;;-0.08;89.76;101715.78;2072196;28;20033;-60
2021/04/13 02:38:06;;;;;;;10.65;7.60;;;;;;;-0.07;89.47;101721.00;2073192;28;20113;-61
2021/04/13 02:39:12;;;;;;;9.27;7.13;;;;;;;-0.05;89.39;101719.34;2070890;28;20057;-61
2021/04/13 02:40:17;;;;;;;9.30;7.07;;;;;;;-0.04;89.44;101718.53;2071839;28;20018;-61
2021/04/13 02:41:26;;;;;;;10.18;7.40;;;;;;;-0.04;89.12;101715.97;2073225;28;20536;-61
2021/04/13 02:42:28;;;;;;;9.88;7.03;;;;;;;0.00;88.93;101711.84;2064639;28;20056;-61
2021/04/13 02:43:44;;;;;;;10.90;6.93;;;;;;;0.05;88.78;101719.72;2070084;28;20026;-61
2021/04/13 02:45:01;;;;;;;9.85;7.40;;;;;;;0.03;88.70;101713.66;2071484;28;20029;-61
2021/04/13 02:46:11;;;;;;;8.95;7.40;;;;;;;0.06;88.73;101716.31;2070629;28;20037;-61
2021/04/13 02:47:14;;;;;;;9.68;7.25;;;;;;;0.10;88.48;101720.75;2071577;28;20030;-61
2021/04/13 02:48:25;;;;;;;8.32;6.45;;;;;;;0.12;88.32;101719.13;2067540;28;20034;-61
2021/04/13 02:49:28;;;;;;;9.32;7.20;;;;;;;0.11;88.18;101719.94;2070350;28;20033;-59
2021/04/13 02:50:32;;;;;;;9.57;6.95;;;;;;;0.13;88.08;101721.72;2072845;28;20034;-59
2021/04/13 02:51:34;;;;;;;9.75;7.10;;;;;;;0.15;87.97;101719.22;2072293;28;20104;-59
2021/04/13 02:52:39;;;;;;;10.02;7.18;;;;;;;0.17;87.74;101712.44;2071840;28;20030;-59
2021/04/13 02:53:45;;;;;;;7.80;6.65;;;;;;;0.18;87.56;101718.47;2071258;28;20669;-59
2021/04/13 02:54:55;;;;;;;10.18;7.00;;;;;;;0.20;87.64;101722.84;2072948;28;20147;-59
2021/04/13 02:55:59;;;;;;;7.97;7.05;;;;;;;0.20;87.72;101725.41;2072942;28;20026;-59
2021/04/13 02:57:06;;;;;;;10.57;7.28;;;;;;;0.19;87.50;101718.53;2072054;28;20049;-59
2021/04/13 02:58:10;;;;;;;8.00;6.65;;;;;;;0.20;87.60;101724.50;2073236;28;20058;-59
2021/04/13 02:59:14;;;;;;;8.35;6.57;;;;;;;0.24;87.28;101718.69;2073535;28;20497;-59
2021/04/13 03:00:22;;;;;;;9.40;7.43;;;;;;;0.25;87.39;101725.56;2072649;28;20061;-59
2021/04/13 03:01:23;;;;;;;9.38;7.20;;;;;;;0.27;87.46;101723.94;2072833;28;20525;-59
2021/04/13 03:02:37;;;;;;;8.98;7.25;;;;;;;0.30;87.16;101724.91;2073098;28;20018;-59
2021/04/13 03:03:41;;;;;;;8.52;7.05;;;;;;;0.34;86.85;101725.03;2073377;28;20064;-59
2021/04/13 03:04:50;;;;;;;10.02;6.88;;;;;;;0.36;86.66;101729.41;2073317;28;20018;-59
2021/04/13 03:05:52;;;;;;;9.13;7.32;;;;;;;0.40;86.78;101725.25;2073139;28;20029;-59
2021/04/13 03:06:54;;;;;;;10.77;6.90;;;;;;;0.41;86.61;101721.88;2072357;28;20514;-59
2021/04/13 03:08:04;;;;;;;10.10;7.05;;;;;;;0.44;86.48;101722.00;2073123;28;20022;-59
2021/04/13 03:09:06;;;;;;;7.30;6.28;;;;;;;0.47;86.17;101716.94;2073327;28;20502;-59
2021/04/13 03:10:14;;;;;;;10.68;7.35;;;;;;;0.49;85.80;101725.59;2073437;28;20032;-59
2021/04/13 03:11:19;;;;;;;8.93;7.10;;;;;;;0.49;85.77;101730.72;2071609;28;20021;-59
2021/04/13 03:12:20;;;;;;;15.18;7.45;;;;;;;0.50;85.56;101727.34;2074006;28;20371;-59
2021/04/13 03:13:26;;;;;;;8.90;7.65;;;;;;;0.53;85.42;101734.25;2073380;28;20045;-59
2021/04/13 03:14:34;;;;;;;8.48;7.20;;;;;;;0.55;85.51;101730.91;2073214;28;20057;-59
2021/04/13 03:15:37;;;;;;;9.13;6.80;;;;;;;0.55;85.41;101725.78;2073575;28;20056;-59
2021/04/13 03:16:45;;;;;;;9.50;7.43;;;;;;;0.58;85.55;101728.47;2073667;28;20053;-59
2021/04/13 03:17:50;;;;;;;10.38;7.72;;;;;;;0.59;85.50;101732.78;2073523;28;20475;-59
2021/04/13 03:18:54;;;;;;;10.13;7.70;;;;;;;0.60;85.70;101734.53;2073529;28;20036;-59
2021/04/13 03:20:03;;;;;;;9.30;7.15;;;;;;;0.63;85.73;101738.03;2073491;28;20040;-59
2021/04/13 03:21:12;;;;;;;9.55;7.38;;;;;;;0.64;85.57;101739.78;2072981;28;20500;-59
2021/04/13 03:22:15;;;;;;;9.07;7.13;;;;;;;0.61;85.34;101736.28;2073576;28;20022;-59
2021/04/13 03:23:20;;;;;;;10.05;7.80;;;;;;;0.64;85.43;101735.50;2073265;28;20057;-59
2021/04/13 03:24:26;;;;;;;9.73;7.18;;;;;;;0.67;85.30;101740.75;2071800;28;20371;-59
2021/04/13 03:25:32;;;;;;;8.70;7.55;;;;;;;0.69;85.12;101738.25;2072498;28;20482;-59
2021/04/13 03:26:43;;;;;;;13.30;8.27;;;;;;;0.74;85.23;101741.81;2065026;28;20037;-59
2021/04/13 03:27:45;;;;;;;10.38;7.55;;;;;;;0.76;84.79;101738.53;2065246;28;20133;-59
2021/04/13 03:28:53;;;;;;;12.38;8.30;;;;;;;0.77;84.53;101736.81;2065329;28;20062;-59
2021/04/13 03:30:04;;;;;;;9.88;7.18;;;;;;;0.76;84.41;101740.19;2067714;28;20033;-58
2021/04/13 03:31:06;;;;;;;10.68;7.47;;;;;;;0.77;84.29;101740.28;2073458;28;20033;-59
2021/04/13 03:32:07;;;;;;;9.95;8.10;;;;;;;0.81;83.50;101738.69;2073161;28;20026;-59
2021/04/13 03:33:25;;;;;;;9.82;8.20;;;;;;;0.82;83.59;101739.53;2073188;28;20108;-59
2021/04/13 03:34:25;;;;;;;10.40;7.85;;;;;;;0.83;83.23;101734.47;2072657;28;20505;-59
2021/04/13 03:35:29;;;;;;;11.95;8.75;;;;;;;0.80;83.40;101742.06;2073120;28;20022;-61
2021/04/13 03:36:30;;;;;;;10.57;8.63;;;;;;;0.83;84.13;101742.19;2072803;28;20506;-59
2021/04/13 03:37:32;;;;;;;10.60;8.27;;;;;;;0.82;84.14;101745.56;2073188;28;20065;-58
2021/04/13 03:38:35;;;;;;;10.77;8.48;;;;;;;0.86;84.18;101743.97;2073154;28;20017;-59
2021/04/13 03:39:39;;;;;;;10.73;8.90;;;;;;;0.81;84.45;101748.06;2072924;28;20030;-59
2021/04/13 03:40:46;;;;;;;13.40;8.20;;;;;;;0.84;84.37;101738.75;2073147;28;20025;-59
2021/04/13 03:41:48;;;;;;;11.77;8.52;;;;;;;0.84;84.77;101743.91;2073326;28;20095;-59
2021/04/13 03:42:53;;;;;;;11.57;8.90;;;;;;;0.82;84.96;101750.69;2072819;28;20072;-59
2021/04/13 03:43:57;;;;;;;10.80;8.75;;;;;;;0.82;84.79;101755.81;2072905;28;20092;-59
2021/04/13 03:44:59;;;;;;;12.75;8.85;;;;;;;0.83;84.91;101747.31;2072690;28;20038;-59
2021/04/13 03:46:03;;;;;;;11.60;8.90;;;;;;;0.84;84.87;101748.16;2072983;28;20026;-59
2021/04/13 03:47:11;;;;;;;11.65;8.70;;;;;;;0.82;84.87;101750.69;2072884;28;20486;-59
2021/04/13 03:48:22;;;;;;;9.50;8.48;;;;;;;0.81;84.55;101751.50;2072907;28;20022;-59
2021/04/13 03:49:28;;;;;;;9.65;8.57;;;;;;;0.80;84.45;101747.19;2072965;28;20497;-59
2021/04/13 03:50:30;;;;;;;11.48;8.30;;;;;;;0.79;84.02;101745.44;2072325;28;20034;-59
2021/04/13 03:51:39;;;;;;;12.75;9.18;;;;;;;0.78;84.16;101749.69;2073257;28;20041;-59
2021/04/13 03:52:40;;;;;;;10.75;8.55;;;;;;;0.78;84.25;101753.97;2072921;28;20652;-59
2021/04/13 03:53:44;;;;;;;10.70;8.60;;;;;;;0.78;84.10;101748.81;2073033;28;20155;-59
2021/04/13 03:54:44;;;;;;;10.75;8.00;;;;;;;0.80;84.15;101748.88;2072627;28;20029;-59
2021/04/13 03:56:02;;;;;;;10.73;8.33;;;;;;;0.79;83.84;101750.56;2072924;28;20034;-59
2021/04/13 03:57:04;;;;;;;10.93;8.38;;;;;;;0.81;83.45;101753.19;2064854;28;20038;-57
2021/04/13 03:58:25;;;;;;;11.55;8.13;;;;;;;0.77;83.32;101752.22;2065061;28;20034;-57
2021/04/13 03:59:35;;;;;;;11.05;8.43;;;;;;;0.80;83.72;101756.56;2064807;28;20392;-57
2021/04/13 04:00:36;;;;;;;9.90;8.55;;;;;;;0.78;83.09;101759.09;2067866;28;20105;-57
2021/04/13 04:01:37;;;;;;;9.70;8.20;;;;;;;0.80;83.52;101757.47;2075042;28;20801;-56
2021/04/13 04:02:37;;;;;;;11.07;9.13;;;;;;;0.83;83.36;101760.16;2078697;28;20406;-57
2021/04/13 04:03:41;;;;;;;12.00;8.83;;;;;;;0.86;82.85;101751.66;2072857;28;20072;-57
2021/04/13 04:04:43;;;;;;;9.93;8.48;;;;;;;0.86;82.64;101761.94;2072160;28;20119;-57
2021/04/13 04:05:56;;;;;;;11.90;8.57;;;;;;;0.83;82.25;101757.56;2071088;28;20034;-56
2021/04/13 04:07:04;;;;;;;9.68;8.45;;;;;;;0.88;81.87;101761.16;2072089;28;20100;-57
2021/04/13 04:08:16;;;;;;;12.93;8.93;;;;;;;0.85;81.75;101758.47;2073224;28;20026;-57
2021/04/13 04:09:35;;;;;;;11.98;8.70;;;;;;;0.82;82.06;101755.81;2072932;28;20022;-57
2021/04/13 04:10:41;;;;;;;10.25;8.75;;;;;;;0.81;82.28;101754.06;2072126;28;20104;-57
2021/04/13 04:11:42;;;;;;;11.27;9.20;;;;;;;0.82;82.27;101758.41;2072726;28;20430;-56
2021/04/13 04:12:43;;;;;;;12.40;9.75;;;;;;;0.79;82.51;101760.84;2072309;28;20125;-57
2021/04/13 04:13:51;;;;;;;11.13;9.00;;;;;;;0.77;82.67;101758.22;2072277;28;20032;-57
2021/04/13 04:15:07;;;;;;;10.80;8.65;;;;;;;0.75;82.42;101764.09;2073026;28;20053;-57
2021/04/13 04:16:14;;;;;;;9.48;8.45;;;;;;;0.76;82.37;101763.28;2072572;28;20037;-57
2021/04/13 04:17:15;;;;;;;12.98;8.95;;;;;;;0.74;82.46;101763.25;2073082;28;20266;-57
2021/04/13 04:18:39;;;;;;;12.13;9.15;;;;;;;0.73;82.45;101766.63;2072817;28;20100;-57
2021/04/13 04:19:39;;;;;;;10.60;9.50;;;;;;;0.73;82.15;101770.91;2071332;28;20088;-57
2021/04/13 04:20:40;;;;;;;11.23;9.18;;;;;;;0.68;82.36;101769.84;2072931;28;20521;-56
2021/04/13 04:21:42;;;;;;;13.27;9.03;;;;;;;0.66;82.44;101777.50;2072701;28;20045;-57
2021/04/13 04:22:52;;;;;;;12.23;9.10;;;;;;;0.67;82.54;101774.13;2072898;28;20033;-57
2021/04/13 04:23:59;;;;;;;11.13;9.27;;;;;;;0.64;82.72;101773.16;2072510;28;20030;-57
2021/04/13 04:25:21;;;;;;;13.02;9.65;;;;;;;0.64;82.33;101781.69;2072951;28;20034;-57
2021/04/13 04:26:28;;;;;;;10.07;8.85;;;;;;;0.63;82.48;101784.22;2072142;28;20026;-57
2021/04/13 04:27:36;;;;;;;12.52;9.93;;;;;;;0.60;82.83;101779.84;2072975;28;20497;-57
2021/04/13 04:28:41;;;;;;;13.40;9.82;;;;;;;0.59;82.74;101781.53;2072347;28;20033;-57
2021/04/13 04:29:44;;;;;;;11.77;9.93;;;;;;;0.56;82.63;101781.41;2072923;28;20057;-57
2021/04/13 04:30:44;;;;;;;14.35;10.15;;;;;;;0.58;82.32;101779.78;2072227;28;20398;-57
2021/04/13 04:31:46;;;;;;;11.60;10.03;;;;;;;0.56;82.94;101783.97;2065274;28;20061;-57
2021/04/13 04:32:47;;;;;;;13.02;10.18;;;;;;;0.53;83.24;101778.75;2070264;28;20390;-57
2021/04/13 04:33:47;;;;;;;11.90;10.57;;;;;;;0.50;83.40;101783.78;2071501;28;20038;-57
2021/04/13 04:34:51;;;;;;;12.63;10.20;;;;;;;0.48;83.32;101782.84;2071573;28;20034;-57
2021/04/13 04:35:51;;;;;;;12.88;10.38;;;;;;;0.45;83.19;101781.03;2071189;28;20022;-57
2021/04/13 04:36:53;;;;;;;12.37;10.60;;;;;;;0.41;83.12;101778.31;2065255;28;20116;-57
2021/04/13 04:38:30;;;;;;;13.18;10.25;;;;;;;0.33;83.54;101775.44;2071594;28;20037;-57
2021/04/13 04:39:31;;;;;;;15.27;10.90;;;;;;;0.29;83.86;101781.28;2071802;28;20120;-57
2021/04/13 04:40:31;;;;;;;;;;;;;;;0.22;84.05;101781.84;2071466;28;20463;-57
2021/04/13 04:41:40;;;;;;;14.38;10.43;;;;;;;0.18;84.25;101778.31;2071187;28;19910;-56
2021/04/13 04:43:00;;;;;;;15.07;11.07;;;;;;;0.13;84.65;101787.53;2072516;28;20040;-57
2021/04/13 04:44:02;;;;;;;14.52;11.70;;;;;;;0.08;84.66;101787.34;2072206;28;20122;-57
2021/04/13 04:45:36;;;;;;;14.88;10.95;;;;;;;0.02;84.70;101783.69;2071676;28;20032;-56
2021/04/13 04:46:42;;;;;;;14.90;11.00;;;;;;;0.01;84.93;101787.06;2064216;28;20030;-57
2021/04/13 04:47:44;;;;;;;14.95;11.43;;;;;;;-0.03;85.24;101786.91;2068366;28;20152;-57
2021/04/13 04:49:06;;;;;;;13.32;10.75;;;;;;;-0.07;84.96;101785.06;2072295;28;20462;-57
2021/04/13 04:50:10;;;;;;;15.75;11.27;;;;;;;-0.11;85.15;101788.31;2072740;28;20401;-57
2021/04/13 04:51:13;;;;;;;16.27;11.13;;;;;;;-0.16;85.26;101792.41;2071836;28;20029;-57
2021/04/13 04:52:14;;;;;;;16.10;11.88;;;;;;;-0.24;85.65;101779.28;2072580;28;20026;-57
2021/04/13 04:53:16;;;;;;;18.90;12.10;;;;;;;-0.25;85.59;101781.78;2072594;28;20025;-57
2021/04/13 04:54:16;;;;;;;15.55;11.77;;;;;;;-0.26;85.85;101782.59;2068223;28;20105;-57
2021/04/13 04:55:16;;;;;;;15.13;11.63;;;;;;;-0.28;86.04;101785.06;2063857;28;20533;-57
2021/04/13 04:56:17;;;;;;;17.83;12.43;;;;;;;-0.30;85.81;101785.84;2072023;28;20433;-57
2021/04/13 04:57:17;;;;;;;15.67;11.87;;;;;;;-0.36;86.07;101781.34;2072425;28;20482;-57
2021/04/13 04:58:18;;;;;;;17.33;12.43;;;;;;;-0.37;86.24;101789.84;2072918;28;20116;-57
2021/04/13 04:59:19;;;;;;;;;;;;;;;-0.43;86.48;101782.78;2073156;28;20033;-57
2021/04/13 05:00:19;;;;;;;16.35;11.50;;;;;;;-0.44;86.62;101793.84;2072826;28;19909;-57
2021/04/13 05:01:20;;;;;;;18.42;12.75;;;;;;;-0.44;86.84;101793.84;2072656;28;20093;-57
2021/04/13 05:02:20;;;;;;;15.20;12.50;;;;;;;-0.43;86.86;101793.03;2072948;28;20562;-57
2021/04/13 05:03:22;;;;;;;16.73;12.07;;;;;;;-0.40;86.81;101798.28;2072731;28;20026;-57
2021/04/13 05:04:22;;;;;;;17.52;13.15;;;;;;;-0.38;86.50;101793.22;2072655;28;20111;-57
2021/04/13 05:05:23;;;;;;;17.93;12.87;;;;;;;-0.36;86.22;101792.47;2072680;28;20474;-57
2021/04/13 05:06:24;;;;;;;16.57;12.43;;;;;;;-0.36;86.08;101794.16;2072643;28;20026;-57
2021/04/13 05:07:24;;;;;;;19.10;13.18;;;;;;;-0.27;85.94;101798.78;2072553;28;20385;-56
2021/04/13 05:08:25;;;;;;;14.27;12.20;;;;;;;-0.25;85.80;101799.72;2073031;28;20036;-57
2021/04/13 05:09:26;;;;;;;20.38;12.75;;;;;;;-0.25;85.74;101799.72;2072483;28;20034;-57
2021/04/13 05:10:26;;;;;;;16.73;13.17;;;;;;;-0.17;85.64;101793.22;2072398;28;20040;-57
2021/04/13 05:11:26;;;;;;;15.67;12.93;;;;;;;-0.08;85.61;101806.38;2072732;28;20486;-57
2021/04/13 05:12:27;;;;;;;23.67;13.87;;;;;;;-0.04;85.19;101805.69;2072316;28;20022;-57
2021/04/13 05:13:27;;;;;;;17.97;13.43;;;;;;;0.06;84.65;101812.06;2072640;28;20025;-57